createdAt,value
2023-01-12T00:00:52.130Z,100582.75
2023-01-12T00:03:19.000Z,100651.31
2023-01-12T00:05:45.822Z,100526.56
2023-01-12T00:08:12.766Z,100626.19
2023-01-12T00:10:39.521Z,100631.63
2023-01-12T00:13:06.352Z,100599.13
2023-01-12T00:15:36.196Z,100622.50
2023-01-12T00:18:02.980Z,100595.59
2023-01-12T00:20:29.769Z,100636.53
2023-01-12T00:22:56.529Z,100528.34
2023-01-12T00:25:23.254Z,100638.19
2023-01-12T00:27:49.943Z,100471.84
2023-01-12T00:30:16.815Z,100645.78
2023-01-12T00:32:44.911Z,100500.25
2023-01-12T00:35:12.073Z,100603.09
2023-01-12T00:37:38.789Z,100605.31
2023-01-12T00:40:06.592Z,100619.13
2023-01-12T00:42:33.544Z,100600.41
2023-01-12T00:45:00.194Z,100601.53
2023-01-12T00:47:27.054Z,100482.56
2023-01-12T00:49:55.207Z,100524.16
2023-01-12T00:52:30.424Z,100584.13
2023-01-12T00:54:57.891Z,100557.44
2023-01-12T00:57:24.870Z,100504.38
2023-01-12T00:59:53.956Z,100511.69
2023-01-12T01:02:20.915Z,100526.91
2023-01-12T01:04:47.946Z,100502.50
2023-01-12T01:07:16.244Z,100603.19
2023-01-12T01:09:43.334Z,100495.25
2023-01-12T01:12:10.514Z,100576.69
2023-01-12T01:14:38.344Z,100610.16
2023-01-12T01:17:05.703Z,100613.94
2023-01-12T01:19:32.601Z,100590.78
2023-01-12T01:21:59.362Z,100503.41
2023-01-12T01:24:29.782Z,100591.34
2023-01-12T01:26:56.546Z,100535.88
2023-01-12T01:29:23.264Z,100508.88
2023-01-12T01:31:49.982Z,100554.91
2023-01-12T01:34:16.731Z,100566.50
2023-01-12T01:36:43.425Z,100581.94
2023-01-12T01:39:10.406Z,100523.50
2023-01-12T01:41:38.498Z,100571.94
2023-01-12T01:44:07.006Z,100563.88
2023-01-12T01:46:38.624Z,100572.78
2023-01-12T01:49:17.335Z,100466.56
2023-01-12T01:51:45.565Z,100543.09
2023-01-12T01:54:13.688Z,100454.16
2023-01-12T01:56:42.944Z,100552.03
2023-01-12T01:59:15.232Z,100544.50
2023-01-12T02:01:42.067Z,100471.28
2023-01-12T02:04:09.693Z,100370.56
2023-01-12T02:06:36.500Z,100345.78
2023-01-12T02:09:08.377Z,100469.75
2023-01-12T02:11:35.338Z,100333.38
2023-01-12T02:14:03.527Z,100519.22
2023-01-12T02:16:33.706Z,100390.09
2023-01-12T02:19:21.316Z,100504.09
2023-01-12T02:22:24.841Z,100500.56
2023-01-12T02:25:17.637Z,100475.47
2023-01-12T02:28:08.149Z,100472.78
2023-01-12T02:31:20.987Z,100347.38
2023-01-12T02:34:00.914Z,100481.69
2023-01-12T02:36:35.511Z,100333.19
2023-01-12T02:39:08.885Z,100321.00
2023-01-12T02:41:40.541Z,100448.81
2023-01-12T02:44:13.404Z,100240.75
2023-01-12T02:46:44.381Z,100446.41
2023-01-12T02:49:17.844Z,100260.72
2023-01-12T02:51:51.495Z,100256.41
2023-01-12T02:54:21.219Z,100321.69
2023-01-12T02:56:50.869Z,100287.50
2023-01-12T02:59:22.214Z,100409.78
2023-01-12T03:01:49.757Z,100399.00
2023-01-12T03:04:19.531Z,100379.88
2023-01-12T03:07:07.906Z,100382.84
2023-01-12T03:09:40.986Z,100392.56
2023-01-12T03:12:11.554Z,100307.28
2023-01-12T03:14:42.102Z,100380.19
2023-01-12T03:17:17.559Z,100368.59
2023-01-12T03:19:48.043Z,100166.09
2023-01-12T03:22:16.981Z,100241.28
2023-01-12T03:24:48.933Z,100278.78
2023-01-12T03:27:18.629Z,100246.16
2023-01-12T03:29:48.410Z,100198.47
2023-01-12T03:32:15.328Z,100245.06
2023-01-12T03:34:42.192Z,100360.78
2023-01-12T03:37:22.698Z,100162.06
2023-01-12T03:40:00.683Z,100265.31
2023-01-12T03:42:33.579Z,100329.00
2023-01-12T03:45:10.429Z,100166.75
2023-01-12T03:47:40.462Z,100326.56
2023-01-12T03:50:11.668Z,100314.72
2023-01-12T03:52:43.107Z,100275.66
2023-01-12T03:55:11.641Z,100304.75
2023-01-12T03:57:39.735Z,100287.50
2023-01-12T04:00:09.714Z,100278.34
2023-01-12T04:02:36.336Z,100155.47
2023-01-12T04:05:03.299Z,100116.16
2023-01-12T04:07:30.103Z,100270.25
2023-01-12T04:09:58.264Z,100203.19
2023-01-12T04:12:25.077Z,100122.09
2023-01-12T04:14:51.981Z,100114.53
2023-01-12T04:17:18.754Z,100146.31
2023-01-12T04:19:45.515Z,100254.63
2023-01-12T04:22:15.179Z,100242.50
2023-01-12T04:24:42.145Z,100226.34
2023-01-12T04:27:10.363Z,100204.50
2023-01-12T04:29:37.098Z,100186.75
2023-01-12T04:32:04.453Z,100077.69
2023-01-12T04:34:31.250Z,100045.38
2023-01-12T04:36:58.153Z,100016.34
2023-01-12T04:39:24.867Z,100104.34
2023-01-12T04:41:51.607Z,100116.16
2023-01-12T04:44:19.741Z,99996.13
2023-01-12T04:46:49.289Z,99964.97
2023-01-12T04:49:16.116Z,99905.53
2023-01-12T04:51:43.391Z,100024.91
2023-01-12T04:54:10.434Z,99904.19
2023-01-12T04:56:37.164Z,100017.06
2023-01-12T04:59:04.229Z,100025.66
2023-01-12T05:01:32.395Z,100008.72
2023-01-12T05:04:00.234Z,99838.63
2023-01-12T05:06:27.374Z,99883.22
2023-01-12T05:08:54.071Z,99963.28
2023-01-12T05:11:21.109Z,99969.72
2023-01-12T05:13:48.193Z,99848.50
2023-01-12T05:16:17.437Z,99785.69
2023-01-12T05:18:46.082Z,99963.25
2023-01-12T05:21:13.168Z,99799.38
2023-01-12T05:23:40.268Z,99849.84
2023-01-12T05:26:07.957Z,99897.38
2023-01-12T05:28:35.147Z,99965.13
2023-01-12T05:31:04.196Z,99862.72
2023-01-12T05:33:31.128Z,99783.25
2023-01-12T05:35:59.823Z,99886.59
2023-01-12T05:38:26.646Z,99979.38
2023-01-12T05:40:53.689Z,99926.38
2023-01-12T05:43:20.533Z,99917.53
2023-01-12T05:45:47.568Z,99945.94
2023-01-12T05:48:14.500Z,99947.56
2023-01-12T05:50:41.484Z,99801.19
2023-01-12T05:53:09.639Z,99948.59
2023-01-12T05:55:42.089Z,99812.94
2023-01-12T05:58:09.058Z,99928.22
2023-01-12T06:00:38.251Z,99847.34
2023-01-12T06:03:05.009Z,99821.34
2023-01-12T06:05:34.005Z,99852.66
2023-01-12T06:08:00.909Z,99754.72
2023-01-12T06:10:29.455Z,99784.28
2023-01-12T06:13:06.537Z,99733.78
2023-01-12T06:15:33.544Z,99938.06
2023-01-12T06:18:00.366Z,99714.41
2023-01-12T06:20:27.158Z,99827.69
2023-01-12T06:22:54.109Z,99886.47
2023-01-12T06:25:21.261Z,99923.75
2023-01-12T06:27:49.609Z,99925.09
2023-01-12T06:30:18.942Z,99827.06
2023-01-12T06:32:45.861Z,99787.09
2023-01-12T06:35:19.530Z,99778.19
2023-01-12T06:37:46.902Z,99749.72
2023-01-12T06:40:14.143Z,99711.84
2023-01-12T06:42:41.136Z,99817.84
2023-01-12T06:45:19.731Z,99831.50
2023-01-12T06:47:47.362Z,99736.78
2023-01-12T06:50:14.239Z,99926.13
2023-01-12T06:52:41.451Z,99860.91
2023-01-12T06:55:11.075Z,99774.81
2023-01-12T06:57:37.945Z,99797.81
2023-01-12T07:00:06.282Z,99809.00
2023-01-12T07:02:34.783Z,99934.47
2023-01-12T07:05:01.649Z,99895.03
2023-01-12T07:07:30.539Z,99949.97
2023-01-12T07:09:59.363Z,99855.38
2023-01-12T07:12:26.103Z,99767.50
2023-01-12T07:14:55.377Z,99760.00
2023-01-12T07:17:22.522Z,99952.44
2023-01-12T07:19:52.676Z,99933.09
2023-01-12T07:22:19.539Z,99869.47
2023-01-12T07:24:46.459Z,99867.06
2023-01-12T07:27:13.465Z,99958.91
2023-01-12T07:29:40.400Z,99809.44
2023-01-12T07:32:09.906Z,99773.28
2023-01-12T07:34:36.746Z,99882.91
2023-01-12T07:37:05.082Z,99783.44
2023-01-12T07:39:31.807Z,99790.97
2023-01-12T07:41:58.487Z,99970.06
2023-01-12T07:44:25.323Z,99971.69
2023-01-12T07:46:52.230Z,99969.53
2023-01-12T07:49:19.176Z,99951.34
2023-01-12T07:51:45.956Z,99996.00
2023-01-12T07:54:14.231Z,100012.16
2023-01-12T07:56:44.175Z,99924.06
2023-01-12T07:59:11.536Z,99834.16
2023-01-12T08:01:38.749Z,99888.09
2023-01-12T08:04:08.719Z,99794.22
2023-01-12T08:06:38.096Z,99988.38
2023-01-12T08:09:04.910Z,99945.56
2023-01-12T08:11:37.327Z,99995.09
2023-01-12T08:14:06.559Z,100030.31
2023-01-12T08:16:41.845Z,99937.97
2023-01-12T08:19:12.462Z,100028.88
2023-01-12T08:21:44.166Z,99905.22
2023-01-12T08:24:16.170Z,99841.41
2023-01-12T08:26:46.630Z,99973.81
2023-01-12T08:29:17.796Z,99875.63
2023-01-12T08:31:44.662Z,99991.91
2023-01-12T08:34:11.798Z,99864.09
2023-01-12T08:36:44.074Z,100057.06
2023-01-12T08:39:11.634Z,99883.44
2023-01-12T08:41:38.402Z,99981.81
2023-01-12T08:44:08.043Z,99906.50
2023-01-12T08:46:36.617Z,100029.19
2023-01-12T08:49:07.306Z,99883.06
2023-01-12T08:51:35.778Z,100066.09
2023-01-12T08:54:02.630Z,99918.50
2023-01-12T08:56:29.389Z,100061.38
2023-01-12T08:58:59.347Z,99928.97
2023-01-12T09:01:29.351Z,100084.19
2023-01-12T09:03:56.769Z,100079.88
2023-01-12T09:06:26.022Z,99995.31
2023-01-12T09:08:53.911Z,100038.59
2023-01-12T09:11:21.085Z,100094.97
2023-01-12T09:13:47.996Z,100004.72
2023-01-12T09:16:17.026Z,99989.78
2023-01-12T09:18:46.328Z,100005.25
2023-01-12T09:21:15.021Z,100036.50
2023-01-12T09:23:42.898Z,100070.78
2023-01-12T09:26:11.415Z,100078.63
2023-01-12T09:28:38.552Z,100097.25
2023-01-12T09:31:06.739Z,100095.75
2023-01-12T09:33:34.002Z,100005.94
2023-01-12T09:36:03.958Z,100145.72
2023-01-12T09:38:31.212Z,100077.91
2023-01-12T09:41:02.475Z,99953.31
2023-01-12T09:43:29.346Z,100144.03
2023-01-12T09:45:56.107Z,100055.47
2023-01-12T09:48:23.113Z,100008.22
2023-01-12T09:50:55.756Z,100123.13
2023-01-12T09:53:28.627Z,100132.25
2023-01-12T09:56:01.403Z,100159.16
2023-01-12T09:58:39.520Z,100175.75
2023-01-12T10:01:20.445Z,100190.25
2023-01-12T10:03:55.691Z,100176.44
2023-01-12T10:06:22.552Z,100066.72
2023-01-12T10:08:53.193Z,100168.59
2023-01-12T10:11:25.971Z,100188.53
2023-01-12T10:14:16.053Z,100051.16
2023-01-12T10:16:53.267Z,100171.72
2023-01-12T10:19:26.065Z,100135.22
2023-01-12T10:21:53.935Z,100189.91
2023-01-12T10:24:24.632Z,100085.69
2023-01-12T10:27:00.068Z,100212.41
2023-01-12T10:29:27.412Z,100043.91
2023-01-12T10:31:54.189Z,100189.91
2023-01-12T10:34:21.304Z,100196.81
2023-01-12T10:36:49.795Z,100221.50
2023-01-12T10:39:33.343Z,100233.41
2023-01-12T10:42:17.584Z,100224.59
2023-01-12T10:44:44.387Z,100109.88
2023-01-12T10:47:17.603Z,100156.63
2023-01-12T10:49:44.421Z,100216.97
2023-01-12T10:52:36.345Z,100190.97
2023-01-12T10:55:05.314Z,100144.78
2023-01-12T10:57:33.876Z,100158.41
2023-01-12T11:00:01.454Z,100264.81
2023-01-12T11:02:42.871Z,100241.53
2023-01-12T11:05:26.384Z,100250.47
2023-01-12T11:07:53.080Z,100244.50
2023-01-12T11:10:28.086Z,100194.72
2023-01-12T11:12:56.639Z,100249.84
2023-01-12T11:15:23.404Z,100221.22
2023-01-12T11:18:03.780Z,100156.06
2023-01-12T11:20:35.696Z,100250.59
2023-01-12T11:23:05.046Z,100239.72
2023-01-12T11:25:39.274Z,100238.38
2023-01-12T11:28:13.170Z,100232.81
2023-01-12T11:30:44.981Z,100250.41
2023-01-12T11:33:16.202Z,100233.38
2023-01-12T11:35:51.577Z,100241.47
2023-01-12T11:38:23.667Z,100232.75
2023-01-12T11:40:55.535Z,100202.88
2023-01-12T11:43:31.771Z,100246.81
2023-01-12T11:46:03.872Z,100256.03
2023-01-12T11:48:38.736Z,100142.59
2023-01-12T11:51:05.447Z,100249.53
2023-01-12T11:53:32.531Z,100243.09
2023-01-12T11:56:10.400Z,100070.63
2023-01-12T11:58:49.596Z,100185.94
2023-01-12T12:01:22.049Z,100182.38
2023-01-12T12:04:00.903Z,100166.44
2023-01-12T12:06:46.228Z,100249.53
2023-01-12T12:09:29.343Z,100246.22
2023-01-12T12:12:01.912Z,100244.38
2023-01-12T12:14:47.258Z,100219.84
2023-01-12T12:17:20.722Z,100244.19
2023-01-12T12:19:59.800Z,100229.69
2023-01-12T12:22:39.769Z,100170.41
2023-01-12T12:25:22.568Z,100239.72
2023-01-12T12:28:10.332Z,100125.81
2023-01-12T12:31:01.679Z,100080.25
2023-01-12T12:33:40.043Z,100224.69
2023-01-12T12:36:18.124Z,100172.88
2023-01-12T12:39:23.706Z,100258.72
2023-01-12T12:42:00.318Z,100234.19
2023-01-12T12:44:39.152Z,100105.09
2023-01-12T12:47:24.107Z,100170.28
2023-01-12T12:49:54.668Z,100237.94
2023-01-12T12:52:23.238Z,100242.56
2023-01-12T12:54:51.265Z,100183.47
2023-01-12T12:57:18.109Z,100078.84
2023-01-12T12:59:55.382Z,100118.97
2023-01-12T13:02:37.646Z,100229.63
2023-01-12T13:05:06.766Z,100194.56
2023-01-12T13:07:44.660Z,100226.06
2023-01-12T13:10:21.065Z,100215.22
2023-01-12T13:13:01.809Z,100171.31
2023-01-12T13:15:32.804Z,100183.22
2023-01-12T13:17:59.950Z,100203.25
2023-01-12T13:21:02.580Z,100189.53
2023-01-12T13:23:50.822Z,100206.44
2023-01-12T13:26:36.883Z,100180.53
2023-01-12T13:29:49.223Z,100202.19
2023-01-12T13:32:59.255Z,100203.34
2023-01-12T13:35:42.313Z,100171.38
2023-01-12T13:38:15.730Z,100162.22
2023-01-12T13:40:42.678Z,100084.56
2023-01-12T13:43:28.454Z,100160.31
2023-01-12T13:45:58.427Z,100039.19
2023-01-12T13:48:29.623Z,100168.06
2023-01-12T13:50:59.597Z,100073.88
2023-01-12T13:53:29.008Z,100148.69
2023-01-12T13:55:57.946Z,100185.81
2023-01-12T13:58:24.782Z,100178.50
2023-01-12T14:00:56.856Z,100006.75
2023-01-12T14:03:39.276Z,100160.75
2023-01-12T14:06:15.344Z,100173.44
2023-01-12T14:08:57.825Z,100173.44
2023-01-12T14:12:09.440Z,100176.19
2023-01-12T14:15:06.813Z,100169.75
2023-01-12T14:17:34.684Z,100169.16
2023-01-12T14:20:02.861Z,100137.53
2023-01-12T14:22:29.613Z,100153.72
2023-01-12T14:25:16.731Z,100166.09
2023-01-12T14:27:50.860Z,100164.75
2023-01-12T14:30:17.934Z,100139.28
2023-01-12T14:32:46.263Z,100109.13
2023-01-12T14:35:26.633Z,100101.53
2023-01-12T14:37:59.493Z,100117.75
2023-01-12T14:40:30.888Z,99980.00
2023-01-12T14:42:58.578Z,100157.28
2023-01-12T14:45:27.690Z,100028.94
2023-01-12T14:47:55.025Z,99987.59
2023-01-12T14:50:24.790Z,100142.03
2023-01-12T14:52:53.525Z,100157.28
2023-01-12T14:55:28.586Z,100114.84
2023-01-12T14:57:58.795Z,100145.66
2023-01-12T15:00:28.053Z,100074.03
2023-01-12T15:02:57.150Z,100067.59
2023-01-12T15:05:27.106Z,100050.94
2023-01-12T15:07:57.254Z,100050.19
2023-01-12T15:10:30.659Z,100053.16
2023-01-12T15:12:58.907Z,99955.34
2023-01-12T15:15:27.237Z,100093.34
2023-01-12T15:17:56.067Z,100012.84
2023-01-12T15:20:23.082Z,100017.41
2023-01-12T15:22:51.636Z,100098.28
2023-01-12T15:25:18.842Z,100029.13
2023-01-12T15:27:45.727Z,100101.66
2023-01-12T15:30:13.255Z,100113.16
2023-01-12T15:32:47.346Z,99941.84
2023-01-12T15:35:16.956Z,99945.13
2023-01-12T15:37:43.741Z,100109.81
2023-01-12T15:40:14.617Z,100010.75
2023-01-12T15:42:41.798Z,100093.72
2023-01-12T15:45:28.125Z,100085.19
2023-01-12T15:47:55.034Z,100038.72
2023-01-12T15:50:21.938Z,100127.66
2023-01-12T15:52:48.981Z,100089.44
2023-01-12T15:55:22.935Z,100004.69
2023-01-12T15:57:49.968Z,100043.88
2023-01-12T16:00:19.229Z,100059.19
2023-01-12T16:02:47.040Z,100104.53
2023-01-12T16:05:17.259Z,99968.47
2023-01-12T16:07:45.153Z,100083.94
2023-01-12T16:10:14.410Z,100084.97
2023-01-12T16:12:43.044Z,100077.38
2023-01-12T16:15:19.569Z,100011.94
2023-01-12T16:17:46.427Z,100036.34
2023-01-12T16:20:14.120Z,99948.09
2023-01-12T16:22:40.940Z,99946.28
2023-01-12T16:25:10.874Z,100094.41
2023-01-12T16:27:38.491Z,100051.94
2023-01-12T16:30:12.855Z,100083.34
2023-01-12T16:32:39.564Z,100057.91
2023-01-12T16:35:06.479Z,99969.25
2023-01-12T16:37:33.381Z,99975.09
2023-01-12T16:40:00.506Z,99929.06
2023-01-12T16:42:28.052Z,100086.91
2023-01-12T16:44:56.669Z,100084.47
2023-01-12T16:47:25.036Z,99898.97
2023-01-12T16:49:55.848Z,99961.97
2023-01-12T16:52:22.822Z,99929.34
2023-01-12T16:54:52.323Z,99944.53
2023-01-12T16:57:19.233Z,100024.63
2023-01-12T17:00:01.930Z,99975.25
2023-01-12T17:02:30.708Z,99867.25
2023-01-12T17:05:03.473Z,100074.84
2023-01-12T17:07:31.292Z,99951.25
2023-01-12T17:10:00.340Z,99904.16
2023-01-12T17:12:27.493Z,100068.63
2023-01-12T17:14:54.648Z,99937.72
2023-01-12T17:17:26.582Z,100038.13
2023-01-12T17:19:58.712Z,99978.75
2023-01-12T17:22:25.848Z,99992.97
2023-01-12T17:24:55.449Z,100053.81
2023-01-12T17:27:23.723Z,100018.19
2023-01-12T17:29:57.499Z,99967.59
2023-01-12T17:32:40.947Z,99983.19
2023-01-12T17:35:17.951Z,99880.69
2023-01-12T17:37:47.581Z,99860.25
2023-01-12T17:40:20.010Z,99952.53
2023-01-12T17:42:51.364Z,100076.16
2023-01-12T17:45:24.443Z,100068.53
2023-01-12T17:47:58.135Z,100070.63
2023-01-12T17:50:32.930Z,100034.91
2023-01-12T17:53:00.130Z,100004.00
2023-01-12T17:55:27.842Z,100073.22
2023-01-12T17:57:54.897Z,100055.41
2023-01-12T18:00:22.926Z,99969.94
2023-01-12T18:02:58.431Z,99945.91
2023-01-12T18:05:32.059Z,99912.78
2023-01-12T18:07:58.882Z,100058.16
2023-01-12T18:10:25.759Z,99904.47
2023-01-12T18:13:04.198Z,100039.94
2023-01-12T18:15:35.217Z,100079.38
2023-01-12T18:18:17.947Z,100022.75
2023-01-12T18:20:47.326Z,100076.47
2023-01-12T18:23:41.186Z,99908.81
2023-01-12T18:26:11.741Z,99994.56
2023-01-12T18:35:46.568Z,99902.66
2023-01-12T18:38:39.435Z,99954.06
2023-01-12T18:44:02.569Z,99882.22
2023-01-12T18:46:44.339Z,100058.75
2023-01-12T18:49:14.371Z,100001.47
2023-01-12T18:51:41.193Z,99986.97
2023-01-12T18:58:50.998Z,99862.28
2023-01-12T19:05:26.389Z,99836.19
2023-01-12T19:15:08.539Z,99936.25
2023-01-12T19:17:42.083Z,100054.38
2023-01-12T19:20:18.881Z,99946.53
2023-01-12T19:22:53.999Z,100015.72
2023-01-12T19:25:48.213Z,99879.47
2023-01-12T19:28:34.168Z,99937.31
2023-01-12T19:31:33.380Z,100048.47
2023-01-12T19:34:24.242Z,100045.97
2023-01-12T19:37:06.495Z,99867.59
2023-01-12T19:40:01.939Z,99966.38
2023-01-12T19:42:46.919Z,100033.56
2023-01-12T19:48:36.825Z,100019.28
2023-01-12T19:51:09.513Z,99986.53
2023-01-12T19:53:41.186Z,100020.09
2023-01-12T19:59:56.068Z,99852.00
2023-01-12T20:05:14.918Z,99980.00
2023-01-12T20:11:17.618Z,99976.75
2023-01-12T20:21:20.481Z,100028.63
2023-01-12T20:38:24.444Z,99826.59
2023-01-12T21:28:54.211Z,99836.31
2023-01-12T21:38:26.806Z,100010.09
2023-01-12T21:45:05.140Z,99984.34
2023-01-12T21:47:52.448Z,100026.78
2023-01-12T21:50:54.260Z,99842.66
2023-01-12T21:53:45.349Z,100023.06
2023-01-12T21:56:23.847Z,99945.47
2023-01-12T21:58:51.662Z,100034.47
2023-01-12T22:01:38.179Z,99969.56
2023-01-12T22:04:13.506Z,99897.72
2023-01-12T22:07:15.165Z,99998.13
2023-01-12T22:09:47.770Z,99908.41
2023-01-12T22:12:16.509Z,99948.09
2023-01-12T22:14:50.797Z,99966.03
2023-01-12T22:17:20.760Z,99951.50
2023-01-12T22:19:57.733Z,99812.31
2023-01-12T22:25:30.492Z,99942.50
2023-01-12T22:28:03.874Z,99933.75
2023-01-12T22:30:41.644Z,99915.78
2023-01-12T22:33:16.329Z,100010.06
2023-01-12T22:42:35.115Z,100058.81
2023-01-12T22:45:07.575Z,99904.78
2023-01-12T22:54:22.897Z,99869.34
2023-01-12T22:56:57.839Z,100042.53
2023-01-12T22:59:44.428Z,99888.59
2023-01-12T23:02:29.862Z,100079.44
2023-01-12T23:05:11.422Z,99921.09
2023-01-12T23:16:48.723Z,99892.72
2023-01-12T23:25:44.705Z,100029.25
2023-01-12T23:28:13.094Z,100103.75
2023-01-12T23:30:40.248Z,100087.34
2023-01-12T23:33:10.169Z,100088.19
2023-01-12T23:35:40.022Z,100093.84
2023-01-12T23:38:09.851Z,100096.56
2023-01-12T23:40:36.576Z,100098.75
2023-01-12T23:43:05.295Z,100062.72
2023-01-12T23:45:36.759Z,100119.31
2023-01-12T23:48:13.037Z,99974.56
2023-01-12T23:50:50.714Z,99908.19
2023-01-12T23:53:21.204Z,100046.13
2023-01-12T23:55:56.490Z,100014.44
2023-01-12T23:58:41.822Z,100035.38
